createdAt,value
2022-07-29T00:00:24.937Z,44.26
2022-07-29T00:02:54.160Z,42.51
2022-07-29T00:05:23.281Z,43.83
2022-07-29T00:07:53.956Z,42.83
2022-07-29T00:10:23.284Z,42.48
2022-07-29T00:12:52.494Z,44.76
2022-07-29T00:15:21.430Z,43.49
2022-07-29T00:17:50.549Z,44.06
2022-07-29T00:20:19.715Z,44.06
2022-07-29T00:22:48.813Z,42.96
2022-07-29T00:25:17.939Z,41.48
2022-07-29T00:27:48.585Z,41.96
2022-07-29T00:30:17.715Z,45.03
2022-07-29T00:32:46.776Z,43.71
2022-07-29T00:35:33.449Z,43.17
2022-07-29T00:38:02.676Z,43.41
2022-07-29T00:40:31.799Z,43.84
2022-07-29T00:43:00.976Z,41.63
2022-07-29T00:45:31.151Z,40.29
2022-07-29T00:48:00.175Z,40.94
2022-07-29T00:50:29.575Z,38.82
2022-07-29T00:52:58.719Z,38.82
2022-07-29T00:55:27.901Z,39.31
2022-07-29T00:57:59.247Z,38.40
2022-07-29T01:00:30.759Z,39.12
2022-07-29T01:03:00.291Z,40.27
2022-07-29T01:05:50.342Z,40.27
2022-07-29T01:08:02.570Z,40.06
2022-07-29T01:10:32.493Z,38.85
2022-07-29T01:13:03.274Z,37.29
2022-07-29T01:15:35.557Z,36.66
2022-07-29T01:18:22.122Z,36.66
2022-07-29T01:21:09.144Z,37.82
2022-07-29T01:24:01.941Z,37.48
2022-07-29T01:26:51.651Z,36.42
2022-07-29T01:29:35.930Z,36.94
2022-07-29T01:32:27.679Z,36.88
2022-07-29T01:34:56.989Z,37.03
2022-07-29T01:37:46.634Z,37.03
2022-07-29T01:40:24.364Z,36.78
2022-07-29T01:42:59.348Z,37.32
2022-07-29T01:45:37.222Z,37.58
2022-07-29T01:48:09.184Z,36.47
2022-07-29T01:50:41.156Z,38.20
2022-07-29T01:53:12.716Z,38.20
2022-07-29T01:55:44.815Z,39.23
2022-07-29T01:58:15.800Z,36.64
2022-07-29T02:00:46.779Z,37.84
2022-07-29T02:03:17.963Z,37.84
2022-07-29T02:05:49.912Z,39.17
2022-07-29T02:08:21.000Z,37.78
2022-07-29T02:10:52.801Z,37.83
2022-07-29T02:13:24.902Z,37.83
2022-07-29T02:15:56.080Z,37.59
2022-07-29T02:18:27.646Z,37.59
2022-07-29T02:20:58.892Z,38.02
2022-07-29T02:23:28.577Z,36.16
2022-07-29T02:25:59.956Z,36.39
2022-07-29T02:28:31.916Z,35.82
2022-07-29T02:31:03.718Z,35.82
2022-07-29T02:33:34.349Z,35.40
2022-07-29T02:36:04.921Z,36.70
2022-07-29T02:38:54.673Z,37.80
2022-07-29T02:41:41.400Z,36.63
2022-07-29T02:44:14.070Z,36.50
2022-07-29T02:46:52.123Z,37.26
2022-07-29T02:49:27.118Z,37.73
2022-07-29T02:52:01.894Z,37.53
2022-07-29T02:54:33.882Z,37.53
2022-07-29T02:57:05.835Z,39.00
2022-07-29T02:59:37.820Z,37.90
2022-07-29T03:02:09.426Z,38.58
2022-07-29T03:04:41.703Z,37.59
2022-07-29T03:07:13.581Z,37.59
2022-07-29T03:09:44.857Z,37.50
2022-07-29T03:12:14.497Z,36.80
2022-07-29T03:14:45.861Z,36.80
2022-07-29T03:17:16.048Z,37.51
2022-07-29T03:19:45.373Z,36.78
2022-07-29T03:22:15.876Z,37.25
2022-07-29T03:24:46.602Z,35.24
2022-07-29T03:27:17.686Z,36.23
2022-07-29T03:29:50.040Z,35.69
2022-07-29T03:32:17.604Z,36.42
2022-07-29T03:34:48.263Z,36.42
2022-07-29T03:37:17.298Z,37.45
2022-07-29T03:39:48.287Z,36.14
2022-07-29T03:42:20.670Z,37.41
2022-07-29T03:44:52.427Z,37.41
2022-07-29T03:47:36.812Z,38.33
2022-07-29T03:49:58.209Z,36.89
2022-07-29T03:52:27.381Z,36.85
2022-07-29T03:54:56.685Z,38.06
2022-07-29T03:57:28.760Z,35.22
2022-07-29T03:59:58.574Z,38.53
2022-07-29T04:02:30.697Z,38.53
2022-07-29T04:04:59.308Z,37.23
2022-07-29T04:07:28.393Z,36.94
2022-07-29T04:09:57.512Z,36.94
2022-07-29T04:12:26.589Z,36.05
2022-07-29T04:14:55.677Z,37.36
2022-07-29T04:17:24.692Z,35.18
2022-07-29T04:19:53.790Z,34.97
2022-07-29T04:22:22.990Z,34.97
2022-07-29T04:24:52.184Z,37.51
2022-07-29T04:27:21.296Z,36.13
2022-07-29T04:29:57.138Z,36.13
2022-07-29T04:32:21.152Z,34.81
2022-07-29T04:34:50.285Z,34.56
2022-07-29T04:37:19.423Z,34.56
2022-07-29T04:39:48.471Z,35.52
2022-07-29T04:42:17.586Z,34.22
2022-07-29T04:44:48.336Z,35.63
2022-07-29T04:47:19.435Z,34.65
2022-07-29T04:49:48.508Z,35.30
2022-07-29T04:52:17.597Z,35.30
2022-07-29T04:54:46.719Z,35.10
2022-07-29T04:57:15.847Z,35.25
2022-07-29T04:59:45.074Z,34.17
2022-07-29T05:02:14.196Z,34.17
2022-07-29T05:04:43.384Z,35.39
2022-07-29T05:07:12.489Z,33.90
2022-07-29T05:09:41.575Z,35.34
2022-07-29T05:12:11.076Z,35.41
2022-07-29T05:14:40.094Z,35.41
2022-07-29T05:17:09.209Z,34.83
2022-07-29T05:19:39.862Z,35.63
2022-07-29T05:22:09.120Z,35.63
2022-07-29T05:24:38.497Z,33.97
2022-07-29T05:27:07.602Z,33.97
2022-07-29T05:29:44.993Z,34.83
2022-07-29T05:32:09.009Z,34.37
2022-07-29T05:34:38.110Z,34.37
2022-07-29T05:37:08.763Z,33.10
2022-07-29T05:39:47.300Z,32.55
2022-07-29T05:42:13.687Z,32.55
2022-07-29T05:44:42.777Z,33.70
2022-07-29T05:47:12.659Z,32.38
2022-07-29T05:49:41.666Z,32.64
2022-07-29T05:52:11.399Z,31.68
2022-07-29T05:54:40.814Z,31.68
2022-07-29T05:57:11.133Z,31.71
2022-07-29T05:59:41.133Z,32.38
2022-07-29T06:02:10.583Z,32.38
2022-07-29T06:04:39.720Z,31.24
2022-07-29T06:07:08.943Z,29.78
2022-07-29T06:09:38.191Z,32.10
2022-07-29T06:12:07.468Z,30.53
2022-07-29T06:14:36.642Z,29.61
2022-07-29T06:17:06.727Z,26.25
2022-07-29T06:19:37.574Z,25.94
2022-07-29T06:22:06.974Z,25.35
2022-07-29T06:24:39.976Z,26.80
2022-07-29T06:27:09.070Z,26.80
2022-07-29T06:29:38.198Z,24.29
2022-07-29T06:32:08.467Z,24.69
2022-07-29T06:34:41.001Z,24.19
2022-07-29T06:37:15.742Z,24.19
2022-07-29T06:39:42.975Z,24.45
2022-07-29T06:42:12.040Z,22.58
2022-07-29T06:44:41.118Z,22.58
2022-07-29T06:47:10.217Z,23.68
2022-07-29T06:49:39.899Z,24.94
2022-07-29T06:52:09.001Z,23.84
2022-07-29T06:54:38.062Z,23.84
2022-07-29T06:57:07.139Z,23.26
2022-07-29T06:59:36.268Z,24.19
2022-07-29T07:02:05.490Z,24.43
2022-07-29T07:04:34.661Z,24.11
2022-07-29T07:07:03.774Z,24.87
2022-07-29T07:09:40.381Z,23.79
2022-07-29T07:12:03.631Z,23.79
2022-07-29T07:14:32.681Z,24.32
2022-07-29T07:17:01.865Z,24.32
2022-07-29T07:19:30.892Z,25.53
2022-07-29T07:22:00.140Z,25.38
2022-07-29T07:24:31.203Z,25.38
2022-07-29T07:27:00.316Z,23.06
2022-07-29T07:29:29.405Z,23.06
2022-07-29T07:32:01.124Z,22.94
2022-07-29T07:34:31.288Z,22.81
2022-07-29T07:37:00.377Z,21.67
2022-07-29T07:39:29.672Z,20.95
2022-07-29T07:41:58.783Z,20.95
2022-07-29T07:44:27.949Z,23.01
2022-07-29T07:46:57.025Z,22.72
2022-07-29T07:49:27.809Z,21.25
2022-07-29T07:51:57.425Z,21.25
2022-07-29T07:54:26.611Z,22.03
2022-07-29T07:56:55.843Z,22.03
2022-07-29T07:59:24.893Z,21.91
2022-07-29T08:01:56.175Z,22.61
2022-07-29T08:04:28.619Z,22.61
2022-07-29T08:06:57.550Z,21.48
2022-07-29T08:09:30.283Z,22.85
2022-07-29T08:12:00.573Z,22.15
2022-07-29T08:14:29.823Z,21.30
2022-07-29T08:16:59.261Z,21.30
2022-07-29T08:19:28.508Z,21.93
2022-07-29T08:21:57.590Z,22.75
2022-07-29T08:24:44.607Z,21.35
2022-07-29T08:27:40.650Z,21.82
2022-07-29T08:29:45.061Z,22.92
2022-07-29T08:32:22.292Z,22.81
2022-07-29T08:34:46.827Z,22.59
2022-07-29T08:37:15.898Z,21.78
2022-07-29T08:39:45.853Z,21.48
2022-07-29T08:42:15.313Z,21.48
2022-07-29T08:44:44.959Z,22.04
2022-07-29T08:47:18.363Z,22.04
2022-07-29T08:49:49.050Z,23.05
2022-07-29T08:52:19.214Z,23.05
2022-07-29T08:54:49.686Z,22.31
2022-07-29T08:57:20.927Z,21.09
2022-07-29T08:59:52.439Z,21.09
2022-07-29T09:02:23.878Z,21.31
2022-07-29T09:04:53.241Z,23.06
2022-07-29T09:07:22.503Z,23.06
2022-07-29T09:09:51.564Z,21.74
2022-07-29T09:12:28.620Z,20.79
2022-07-29T09:14:52.000Z,20.05
2022-07-29T09:17:22.505Z,20.79
2022-07-29T09:19:53.147Z,20.13
2022-07-29T09:22:25.109Z,20.13
2022-07-29T09:24:55.834Z,20.12
2022-07-29T09:27:27.891Z,21.52
2022-07-29T09:30:08.153Z,20.55
2022-07-29T09:32:58.425Z,20.55
2022-07-29T09:35:29.088Z,21.02
2022-07-29T09:37:58.705Z,21.02
2022-07-29T09:40:30.112Z,21.01
2022-07-29T09:42:59.518Z,21.01
2022-07-29T09:45:36.183Z,20.04
2022-07-29T09:48:16.629Z,21.12
2022-07-29T09:50:48.069Z,21.12
2022-07-29T09:53:38.380Z,20.80
2022-07-29T09:56:07.931Z,20.80
2022-07-29T09:58:37.030Z,21.54
2022-07-29T10:01:06.113Z,21.54
2022-07-29T10:03:36.766Z,21.98
2022-07-29T10:06:11.454Z,21.98
2022-07-29T10:08:40.837Z,21.81
2022-07-29T10:11:15.675Z,21.98
2022-07-29T10:13:46.853Z,21.98
2022-07-29T10:16:17.369Z,22.63
2022-07-29T10:18:51.718Z,22.48
2022-07-29T10:21:22.573Z,22.48
2022-07-29T10:23:53.326Z,21.89
2022-07-29T10:26:26.064Z,21.78
2022-07-29T10:28:55.401Z,21.78
2022-07-29T10:31:27.424Z,22.60
2022-07-29T10:34:18.687Z,23.29
2022-07-29T10:37:11.767Z,23.29
2022-07-29T10:39:58.423Z,22.71
2022-07-29T10:42:34.612Z,22.84
2022-07-29T10:45:04.554Z,22.84
2022-07-29T10:47:35.383Z,21.96
2022-07-29T10:50:07.423Z,22.88
2022-07-29T10:52:57.928Z,22.39
2022-07-29T10:55:47.781Z,22.39
2022-07-29T10:58:20.079Z,23.00
2022-07-29T11:00:52.704Z,23.14
2022-07-29T11:03:50.701Z,22.52
2022-07-29T11:06:26.672Z,21.73
2022-07-29T11:08:52.729Z,21.94
2022-07-29T11:11:29.761Z,22.88
2022-07-29T11:13:57.014Z,22.28
2022-07-29T11:16:26.835Z,22.28
2022-07-29T11:19:15.989Z,21.97
2022-07-29T11:21:55.503Z,21.43
2022-07-29T11:24:28.546Z,21.12
2022-07-29T11:27:22.037Z,21.12
2022-07-29T11:29:56.944Z,21.61
2022-07-29T11:32:29.877Z,20.76
2022-07-29T11:35:37.073Z,19.97
2022-07-29T11:38:31.839Z,20.57
2022-07-29T11:41:23.189Z,20.57
2022-07-29T11:43:54.668Z,21.34
2022-07-29T11:46:46.518Z,21.75
2022-07-29T11:49:17.920Z,20.49
2022-07-29T11:51:57.067Z,20.49
2022-07-29T11:54:29.823Z,19.96
2022-07-29T11:57:00.629Z,20.87
2022-07-29T12:02:32.947Z,21.00
2022-07-29T12:04:33.915Z,20.14
2022-07-29T12:07:02.430Z,21.00
2022-07-29T12:09:40.418Z,21.15
2022-07-29T12:12:05.766Z,20.68
2022-07-29T12:14:36.212Z,20.56
2022-07-29T12:17:05.754Z,20.56
2022-07-29T12:19:38.265Z,20.49
2022-07-29T12:22:07.351Z,20.22
2022-07-29T12:24:46.570Z,20.22
2022-07-29T12:27:19.109Z,20.16
2022-07-29T12:30:00.791Z,20.80
2022-07-29T12:32:40.808Z,20.52
2022-07-29T12:35:16.302Z,20.52
2022-07-29T12:37:48.417Z,20.46
2022-07-29T12:40:18.792Z,20.48
2022-07-29T12:43:10.523Z,20.90
2022-07-29T12:45:41.441Z,20.90
2022-07-29T12:48:12.322Z,19.58
2022-07-29T12:50:59.329Z,19.58
2022-07-29T12:53:29.340Z,20.76
2022-07-29T12:56:07.999Z,20.40
2022-07-29T12:58:38.986Z,20.40
2022-07-29T13:01:17.055Z,19.61
2022-07-29T13:03:57.354Z,19.61
2022-07-29T13:06:35.343Z,19.23
2022-07-29T13:09:16.538Z,20.30
2022-07-29T13:11:48.941Z,20.30
2022-07-29T13:14:38.550Z,20.02
2022-07-29T13:17:20.175Z,19.73
2022-07-29T13:19:54.441Z,19.13
2022-07-29T13:22:25.941Z,19.13
2022-07-29T13:25:00.689Z,19.70
2022-07-29T13:27:33.169Z,20.17
2022-07-29T13:30:04.226Z,19.73
2022-07-29T13:32:35.646Z,20.83
2022-07-29T13:35:07.105Z,20.83
2022-07-29T13:37:39.120Z,20.11
2022-07-29T13:40:10.486Z,19.67
2022-07-29T13:42:39.960Z,20.56
2022-07-29T13:45:09.981Z,19.49
2022-07-29T13:47:40.987Z,19.49
2022-07-29T13:50:11.706Z,20.93
2022-07-29T13:52:41.237Z,20.21
2022-07-29T13:55:10.980Z,20.84
2022-07-29T13:57:40.107Z,21.37
2022-07-29T14:00:09.883Z,20.36
2022-07-29T14:02:39.837Z,21.11
2022-07-29T14:05:11.590Z,20.54
2022-07-29T14:07:41.368Z,20.54
2022-07-29T14:10:11.213Z,20.32
2022-07-29T14:12:42.366Z,20.32
2022-07-29T14:15:12.002Z,20.33
2022-07-29T14:17:40.988Z,20.24
2022-07-29T14:20:10.405Z,21.75
2022-07-29T14:22:42.657Z,21.75
2022-07-29T14:25:14.454Z,21.31
2022-07-29T14:27:45.602Z,21.07
2022-07-29T14:30:15.227Z,20.37
2022-07-29T14:32:44.263Z,21.00
2022-07-29T14:35:13.339Z,21.00
2022-07-29T14:37:49.578Z,21.66
2022-07-29T14:40:18.900Z,21.31
2022-07-29T14:42:47.909Z,21.31
2022-07-29T14:45:17.090Z,20.71
2022-07-29T14:47:46.172Z,20.58
2022-07-29T14:50:15.586Z,21.36
2022-07-29T14:52:44.935Z,21.36
2022-07-29T14:55:16.471Z,20.70
2022-07-29T14:57:44.725Z,20.67
2022-07-29T15:00:14.924Z,20.03
2022-07-29T15:03:00.908Z,20.23
2022-07-29T15:05:14.891Z,20.82
2022-07-29T15:07:44.467Z,19.73
2022-07-29T15:10:14.762Z,19.72
2022-07-29T15:12:44.311Z,19.89
2022-07-29T15:15:13.454Z,19.89
2022-07-29T15:17:43.547Z,20.36
2022-07-29T15:20:13.178Z,20.43
2022-07-29T15:22:44.039Z,20.43
2022-07-29T15:25:13.521Z,21.40
2022-07-29T15:27:42.679Z,20.55
2022-07-29T15:30:32.981Z,21.39
2022-07-29T15:32:46.818Z,22.05
2022-07-29T15:35:15.896Z,22.38
2022-07-29T15:37:48.885Z,22.21
2022-07-29T15:40:15.746Z,22.21
2022-07-29T15:42:44.880Z,23.05
2022-07-29T15:45:13.954Z,23.05
2022-07-29T15:47:43.090Z,22.05
2022-07-29T15:50:13.897Z,21.66
2022-07-29T15:52:43.183Z,21.41
2022-07-29T15:55:13.268Z,21.64
2022-07-29T15:57:42.335Z,21.37
2022-07-29T16:00:12.015Z,22.39
2022-07-29T16:02:41.067Z,23.38
2022-07-29T16:05:10.382Z,22.37
2022-07-29T16:07:39.568Z,22.93
2022-07-29T16:10:08.772Z,22.93
2022-07-29T16:12:37.820Z,23.05
2022-07-29T16:15:10.220Z,22.62
2022-07-29T16:17:38.815Z,22.92
2022-07-29T16:20:08.797Z,22.62
2022-07-29T16:22:39.760Z,22.72
2022-07-29T16:25:09.466Z,22.57
2022-07-29T16:27:38.527Z,22.85
2022-07-29T16:30:10.098Z,22.48
2022-07-29T16:32:41.630Z,22.48
2022-07-29T16:35:10.931Z,22.84
2022-07-29T16:37:39.930Z,22.84
2022-07-29T16:40:11.344Z,23.29
2022-07-29T16:42:47.088Z,23.06
2022-07-29T16:45:12.304Z,23.36
2022-07-29T16:47:41.437Z,23.36
2022-07-29T16:50:11.065Z,23.75
2022-07-29T16:52:40.388Z,23.79
2022-07-29T16:55:09.641Z,23.98
2022-07-29T16:57:38.725Z,23.98
2022-07-29T17:00:08.560Z,23.69
2022-07-29T17:02:38.939Z,24.64
2022-07-29T17:05:09.022Z,24.02
2022-07-29T17:07:38.219Z,24.47
2022-07-29T17:10:10.965Z,24.64
2022-07-29T17:12:41.561Z,24.64
2022-07-29T17:15:13.067Z,24.73
2022-07-29T17:17:56.454Z,24.16
2022-07-29T17:20:14.840Z,24.16
2022-07-29T17:22:47.325Z,25.18
2022-07-29T17:25:20.435Z,24.31
2022-07-29T17:27:47.282Z,24.31
2022-07-29T17:30:16.296Z,25.31
2022-07-29T17:32:45.421Z,24.74
2022-07-29T17:35:32.140Z,24.74
2022-07-29T17:38:01.353Z,25.84
2022-07-29T17:40:30.426Z,25.70
2022-07-29T17:42:59.551Z,26.77
2022-07-29T17:45:48.898Z,25.76
2022-07-29T17:47:59.349Z,25.57
2022-07-29T17:50:28.496Z,26.54
2022-07-29T17:52:57.775Z,26.54
2022-07-29T17:55:26.866Z,25.68
2022-07-29T17:57:59.909Z,25.57
2022-07-29T18:00:26.878Z,25.57
2022-07-29T18:02:55.962Z,26.89
2022-07-29T18:05:25.083Z,26.38
2022-07-29T18:07:55.974Z,26.38
2022-07-29T18:10:25.104Z,27.09
2022-07-29T18:12:54.368Z,26.92
2022-07-29T18:15:23.548Z,26.92
2022-07-29T18:17:57.086Z,26.52
2022-07-29T18:20:23.614Z,26.52
2022-07-29T18:22:52.696Z,26.62
2022-07-29T18:25:22.347Z,27.23
2022-07-29T18:27:51.996Z,27.23
2022-07-29T18:30:21.560Z,26.90
2022-07-29T18:33:19.158Z,26.67
2022-07-29T18:35:21.529Z,27.73
2022-07-29T18:38:00.833Z,26.34
2022-07-29T18:40:23.338Z,26.34
2022-07-29T18:42:52.755Z,27.22
2022-07-29T18:45:21.921Z,27.02
2022-07-29T18:47:51.968Z,27.85
2022-07-29T18:50:26.950Z,27.85
2022-07-29T18:52:55.259Z,26.82
2022-07-29T18:55:24.585Z,26.82
2022-07-29T18:57:56.058Z,27.43
2022-07-29T19:00:24.576Z,27.48
2022-07-29T19:02:54.129Z,26.72
2022-07-29T19:05:23.896Z,26.72
2022-07-29T19:07:54.555Z,26.44
2022-07-29T19:10:24.043Z,27.10
2022-07-29T19:12:53.136Z,26.09
2022-07-29T19:15:22.233Z,26.09
2022-07-29T19:17:51.247Z,27.02
2022-07-29T19:20:20.405Z,26.79
2022-07-29T19:22:50.550Z,26.10
2022-07-29T19:25:19.826Z,26.10
2022-07-29T19:27:48.981Z,27.68
2022-07-29T19:30:18.832Z,27.68
2022-07-29T19:32:48.785Z,27.15
2022-07-29T19:35:33.566Z,27.27
2022-07-29T19:38:04.074Z,27.88
2022-07-29T19:40:35.101Z,27.88
2022-07-29T19:43:04.218Z,27.97
2022-07-29T19:45:35.653Z,27.97
2022-07-29T19:48:05.447Z,28.22
2022-07-29T19:50:34.861Z,27.91
2022-07-29T19:53:03.958Z,27.60
2022-07-29T19:55:43.600Z,28.20
2022-07-29T19:58:12.760Z,28.69
2022-07-29T20:00:42.047Z,28.26
2022-07-29T20:03:13.469Z,28.26
2022-07-29T20:05:43.392Z,27.59
2022-07-29T20:08:14.180Z,28.30
2022-07-29T20:10:43.368Z,28.77
2022-07-29T20:13:12.515Z,28.77
2022-07-29T20:15:41.731Z,28.61
2022-07-29T20:18:10.847Z,29.22
2022-07-29T20:20:39.983Z,28.29
2022-07-29T20:23:09.216Z,29.28
2022-07-29T20:25:39.405Z,29.28
2022-07-29T20:28:08.591Z,29.18
2022-07-29T20:30:38.396Z,29.18
2022-07-29T20:33:07.750Z,28.81
2022-07-29T20:35:36.916Z,29.34
2022-07-29T20:38:07.087Z,29.34
2022-07-29T20:40:36.230Z,28.32
2022-07-29T20:43:06.073Z,28.33
2022-07-29T20:45:36.827Z,29.88
2022-07-29T20:48:07.066Z,29.01
2022-07-29T20:50:37.548Z,29.01
2022-07-29T20:53:06.609Z,29.11
2022-07-29T20:55:35.740Z,30.05
2022-07-29T20:58:04.841Z,30.05
2022-07-29T21:00:34.084Z,29.69
2022-07-29T21:03:03.326Z,29.80
2022-07-29T21:05:34.010Z,29.80
2022-07-29T21:08:03.150Z,29.47
2022-07-29T21:10:32.221Z,29.81
2022-07-29T21:13:01.392Z,29.81
2022-07-29T21:15:30.726Z,28.75
2022-07-29T21:18:06.481Z,29.77
2022-07-29T21:20:35.572Z,29.77
2022-07-29T21:23:04.641Z,28.68
2022-07-29T21:25:35.155Z,29.98
2022-07-29T21:28:22.020Z,29.67
2022-07-29T21:30:51.025Z,29.97
2022-07-29T21:33:20.180Z,29.63
2022-07-29T21:38:20.861Z,30.45
2022-07-29T21:40:51.836Z,30.45
2022-07-29T21:43:21.320Z,29.21
2022-07-29T21:45:53.496Z,30.10
2022-07-29T21:48:24.167Z,30.20
2022-07-29T21:50:53.634Z,30.20
2022-07-29T21:53:26.806Z,29.19
2022-07-29T21:55:57.173Z,30.68
2022-07-29T21:58:26.239Z,30.68
2022-07-29T22:00:55.423Z,30.44
2022-07-29T22:03:24.696Z,29.87
2022-07-29T22:05:53.752Z,29.87
2022-07-29T22:08:22.935Z,30.73
2022-07-29T22:10:51.872Z,29.80
2022-07-29T22:13:20.942Z,30.04
2022-07-29T22:15:50.131Z,30.04
2022-07-29T22:18:20.699Z,30.98
2022-07-29T22:20:50.826Z,30.21
2022-07-29T22:23:20.032Z,30.68
2022-07-29T22:25:49.147Z,30.34
2022-07-29T22:28:18.260Z,30.06
2022-07-29T22:30:47.455Z,30.00
2022-07-29T22:33:16.923Z,31.02
2022-07-29T22:35:48.383Z,30.20
2022-07-29T22:38:19.350Z,29.50
2022-07-29T22:40:50.605Z,30.79
2022-07-29T22:43:20.185Z,30.71
2022-07-29T22:45:49.328Z,30.84
2022-07-29T22:48:18.408Z,30.03
2022-07-29T22:50:47.675Z,30.13
2022-07-29T22:53:16.995Z,30.54
2022-07-29T22:55:47.754Z,30.50
2022-07-29T22:58:16.843Z,30.42
2022-07-29T23:00:45.943Z,30.42
2022-07-29T23:03:15.086Z,30.48
2022-07-29T23:05:44.229Z,30.42
2022-07-29T23:08:13.386Z,30.67
2022-07-29T23:10:42.383Z,29.92
2022-07-29T23:13:11.672Z,30.50
2022-07-29T23:15:41.012Z,30.71
2022-07-29T23:18:10.148Z,30.37
2022-07-29T23:20:39.142Z,30.31
2022-07-29T23:23:08.222Z,29.35
2022-07-29T23:25:37.803Z,29.39
2022-07-29T23:28:07.037Z,30.66
2022-07-29T23:30:37.706Z,30.09
2022-07-29T23:33:06.851Z,29.25
2022-07-29T23:35:36.142Z,30.41
2022-07-29T23:38:05.236Z,29.88
2022-07-29T23:40:34.400Z,29.94
2022-07-29T23:43:03.479Z,29.69
2022-07-29T23:45:44.726Z,29.34
2022-07-29T23:48:04.952Z,29.34
2022-07-29T23:50:34.112Z,30.57
2022-07-29T23:53:03.147Z,29.38
2022-07-29T23:55:36.371Z,29.46
2022-07-29T23:58:03.256Z,29.46
